createdAt,value
2019-04-05T04:01:29.561Z,92636.41
2019-04-05T04:03:55.350Z,92630.20
2019-04-05T04:06:21.182Z,92634.88
2019-04-05T04:08:46.996Z,92639.00
2019-04-05T04:11:13.029Z,92646.23
2019-04-05T04:13:38.837Z,92646.48
2019-04-05T04:16:04.547Z,92644.94
2019-04-05T04:18:30.698Z,92643.62
2019-04-05T04:21:12.055Z,92641.03
2019-04-05T04:23:38.110Z,92641.30
2019-04-05T04:26:04.630Z,92636.63
2019-04-05T04:28:30.436Z,92633.50
2019-04-05T04:30:56.154Z,92632.76
2019-04-05T04:33:22.229Z,92632.22
2019-04-05T04:35:48.694Z,92634.05
2019-04-05T04:38:14.471Z,92636.63
2019-04-05T04:40:40.402Z,92641.30
2019-04-05T04:43:06.159Z,92635.09
2019-04-05T04:45:31.937Z,92632.27
2019-04-05T04:47:57.753Z,92638.44
2019-04-05T04:50:23.986Z,92632.26
2019-04-05T04:52:50.207Z,92628.34
2019-04-05T04:55:15.977Z,92623.20
2019-04-05T04:57:41.994Z,92623.97
2019-04-05T05:00:07.706Z,92627.34
2019-04-05T05:02:33.396Z,92629.67
2019-04-05T05:04:59.127Z,92626.05
2019-04-05T05:07:24.850Z,92632.77
2019-04-05T05:09:51.337Z,92634.61
2019-04-05T05:12:17.155Z,92629.43
2019-04-05T05:14:43.134Z,92626.05
2019-04-05T05:17:08.882Z,92624.27
2019-04-05T05:19:34.629Z,92626.84
2019-04-05T05:22:00.644Z,92628.91
2019-04-05T05:24:26.429Z,92638.20
2019-04-05T05:26:52.588Z,92631.48
2019-04-05T05:29:18.396Z,92636.64
2019-04-05T05:31:44.087Z,92634.06
2019-04-05T05:34:10.115Z,92633.80
2019-04-05T05:36:35.917Z,92634.55
2019-04-05T05:39:01.635Z,92634.05
2019-04-05T05:41:27.345Z,92635.59
2019-04-05T05:43:53.050Z,92632.22
2019-04-05T05:46:18.774Z,92635.34
2019-04-05T05:48:44.471Z,92638.17
2019-04-05T05:51:10.186Z,92635.04
2019-04-05T05:53:35.901Z,92619.34
2019-04-05T05:56:01.612Z,92638.17
2019-04-05T05:58:27.322Z,92646.67
2019-04-05T06:00:53.083Z,92646.91
2019-04-05T06:03:18.779Z,92651.81
2019-04-05T06:05:44.815Z,92647.69
2019-04-05T06:08:10.906Z,92651.02
2019-04-05T06:10:36.889Z,92646.37
2019-04-05T06:13:02.596Z,92648.14
2019-04-05T06:15:28.622Z,92647.84
2019-04-05T06:18:04.091Z,92647.55
2019-04-05T06:20:21.999Z,92646.77
2019-04-05T06:22:47.854Z,92647.25
2019-04-05T06:25:13.671Z,92644.87
2019-04-05T06:27:39.368Z,92645.13
2019-04-05T06:30:05.083Z,92643.29
2019-04-05T06:32:30.773Z,92645.06
2019-04-05T06:34:56.494Z,92637.78
2019-04-05T06:37:22.198Z,92640.09
2019-04-05T06:39:48.188Z,92638.30
2019-04-05T06:42:13.965Z,92636.06
2019-04-05T06:44:39.681Z,92631.67
2019-04-05T06:47:05.375Z,92634.72
2019-04-05T06:49:31.094Z,92637.70
2019-04-05T06:51:57.190Z,92629.34
2019-04-05T06:54:22.967Z,92632.12
2019-04-05T06:56:48.741Z,92632.80
2019-04-05T06:59:14.850Z,92631.41
2019-04-05T07:01:40.565Z,92635.56
2019-04-05T07:04:06.590Z,92629.44
2019-04-05T07:06:32.335Z,92638.02
2019-04-05T07:08:58.337Z,92639.47
2019-04-05T07:11:24.094Z,92640.20
2019-04-05T07:13:49.792Z,92634.86
2019-04-05T07:16:15.571Z,92636.48
2019-04-05T07:18:41.559Z,92629.38
2019-04-05T07:21:07.285Z,92624.77
2019-04-05T07:23:33.348Z,92626.55
2019-04-05T07:25:59.098Z,92631.06
2019-04-05T07:28:25.428Z,92630.94
2019-04-05T07:30:51.268Z,92634.02
2019-04-05T07:33:17.070Z,92628.76
2019-04-05T07:35:42.848Z,92632.48
2019-04-05T07:38:09.887Z,92635.41
2019-04-05T07:40:35.756Z,92637.92
2019-04-05T07:43:01.852Z,92636.30
2019-04-05T07:45:27.539Z,92629.87
2019-04-05T07:47:53.593Z,92630.06
2019-04-05T07:50:19.562Z,92625.05
2019-04-05T07:52:45.280Z,92620.55
2019-04-05T07:55:11.087Z,92623.92
2019-04-05T07:57:36.821Z,92618.89
2019-04-05T08:00:06.789Z,92622.02
2019-04-05T08:02:32.603Z,92617.21
2019-04-05T08:04:58.415Z,92615.11
2019-04-05T08:07:28.236Z,92620.97
2019-04-05T08:09:54.195Z,92620.05
2019-04-05T08:12:19.974Z,92618.64
2019-04-05T08:14:46.127Z,92618.86
2019-04-05T08:17:11.827Z,92611.46
2019-04-05T08:19:37.541Z,92614.58
2019-04-05T08:22:03.352Z,92608.91
2019-04-05T08:24:29.376Z,92612.05
2019-04-05T08:26:55.186Z,92609.57
2019-04-05T08:29:20.952Z,92612.80
2019-04-05T08:31:46.970Z,92615.83
2019-04-05T08:34:13.065Z,92617.41
2019-04-05T08:36:39.046Z,92611.06
2019-04-05T08:39:06.511Z,92611.33
2019-04-05T08:41:32.331Z,92614.31
2019-04-05T08:43:58.097Z,92608.88
2019-04-05T08:46:24.211Z,92606.13
2019-04-05T08:48:52.224Z,92608.66
2019-04-05T08:51:17.564Z,92608.48
2019-04-05T08:53:43.380Z,92608.64
2019-04-05T08:56:09.143Z,92600.52
2019-04-05T08:58:35.253Z,92597.85
2019-04-05T09:01:00.939Z,92599.03
2019-04-05T09:03:26.995Z,92591.05
2019-04-05T09:05:52.970Z,92599.34
2019-04-05T09:08:21.290Z,92601.22
2019-04-05T09:10:46.407Z,92596.70
2019-04-05T09:13:12.523Z,92589.20
2019-04-05T09:15:38.533Z,92594.36
2019-04-05T09:18:04.695Z,92585.34
2019-04-05T09:20:30.657Z,92586.33
2019-04-05T09:22:56.374Z,92585.28
2019-04-05T09:25:22.140Z,92593.45
2019-04-05T09:27:47.952Z,92589.95
2019-04-05T09:30:15.928Z,92584.27
2019-04-05T09:32:41.724Z,92591.02
2019-04-05T09:35:07.690Z,92585.39
2019-04-05T09:37:33.494Z,92581.78
2019-04-05T09:39:59.610Z,92578.88
2019-04-05T09:42:25.302Z,92579.38
2019-04-05T09:44:51.022Z,92575.30
2019-04-05T09:47:16.793Z,92568.83
2019-04-05T09:49:42.603Z,92573.42
2019-04-05T09:52:08.407Z,92572.00
2019-04-05T09:54:34.192Z,92575.20
2019-04-05T09:57:00.246Z,92574.91
2019-04-05T09:59:26.219Z,92580.78
2019-04-05T10:01:51.921Z,92576.25
2019-04-05T10:04:18.008Z,92572.56
2019-04-05T10:06:43.773Z,92569.38
2019-04-05T10:09:09.851Z,92570.63
2019-04-05T10:11:35.620Z,92567.37
2019-04-05T10:14:01.397Z,92566.65
2019-04-05T10:16:27.209Z,92567.31
2019-04-05T10:18:53.018Z,92562.42
2019-04-05T10:21:18.788Z,92565.82
2019-04-05T10:23:44.601Z,92565.41
2019-04-05T10:26:10.386Z,92559.80
2019-04-05T10:28:36.173Z,92558.92
2019-04-05T10:31:01.959Z,92556.92
2019-04-05T10:33:27.755Z,92553.05
2019-04-05T10:35:53.522Z,92548.97
2019-04-05T10:38:19.332Z,92549.58
2019-04-05T10:40:45.140Z,92550.39
2019-04-05T10:43:10.906Z,92548.27
2019-04-05T10:45:36.688Z,92549.03
2019-04-05T10:48:02.778Z,92550.69
2019-04-05T10:50:28.678Z,92550.77
2019-04-05T10:52:54.708Z,92549.03
2019-04-05T10:55:20.420Z,92545.64
2019-04-05T10:57:46.126Z,92550.92
2019-04-05T11:00:14.315Z,92554.73
2019-04-05T11:02:40.088Z,92548.19
2019-04-05T11:05:05.875Z,92551.07
2019-04-05T11:07:34.848Z,92545.21
2019-04-05T11:09:59.613Z,92544.00
2019-04-05T11:12:25.371Z,92538.03
2019-04-05T11:14:51.503Z,92539.13
2019-04-05T11:17:17.454Z,92535.47
2019-04-05T11:19:43.469Z,92535.98
2019-04-05T11:22:09.238Z,92538.81
2019-04-05T11:24:35.396Z,92541.76
2019-04-05T11:27:01.142Z,92540.53
2019-04-05T11:29:26.862Z,92538.69
2019-04-05T11:31:57.232Z,92545.83
2019-04-05T11:34:20.318Z,92537.00
2019-04-05T11:36:46.413Z,92538.22
2019-04-05T11:39:12.212Z,92528.24
2019-04-05T11:41:37.983Z,92523.38
2019-04-05T11:44:03.744Z,92523.84
2019-04-05T11:46:29.791Z,92524.62
2019-04-05T11:48:55.551Z,92522.38
2019-04-05T11:51:21.362Z,92523.77
2019-04-05T11:53:47.129Z,92522.48
2019-04-05T11:56:14.941Z,92516.25
2019-04-05T11:58:42.475Z,92519.38
2019-04-05T12:01:13.223Z,92518.30
2019-04-05T12:03:39.389Z,92514.38
2019-04-05T12:06:05.098Z,92517.83
2019-04-05T12:08:30.808Z,92516.17
2019-04-05T12:10:56.896Z,92514.30
2019-04-05T12:13:22.591Z,92508.17
2019-04-05T12:15:48.637Z,92509.55
2019-04-05T12:18:19.218Z,92510.45
2019-04-05T12:20:49.715Z,92517.97
2019-04-05T12:23:10.236Z,92519.77
2019-04-05T12:25:36.391Z,92510.63
2019-04-05T12:28:06.831Z,92504.95
2019-04-05T12:30:30.314Z,92508.96
2019-04-05T12:32:56.099Z,92504.38
2019-04-05T12:35:22.097Z,92498.48
2019-04-05T12:37:50.647Z,92499.88
2019-04-05T12:40:16.242Z,92497.71
2019-04-05T12:42:43.500Z,92501.41
2019-04-05T12:45:09.488Z,92498.47
2019-04-05T12:47:35.552Z,92498.08
2019-04-05T12:50:01.312Z,92501.33
2019-04-05T12:52:28.014Z,92496.91
2019-04-05T12:54:54.924Z,92501.23
2019-04-05T12:57:21.185Z,92494.14
2019-04-05T12:59:46.957Z,92495.55
2019-04-05T13:02:14.097Z,92489.65
2019-04-05T13:04:40.708Z,92489.32
2019-04-05T13:07:06.475Z,92490.17
2019-04-05T13:09:32.278Z,92477.83
2019-04-05T13:11:58.337Z,92481.53
2019-04-05T13:14:26.192Z,92476.92
2019-04-05T13:16:51.846Z,92473.51
2019-04-05T13:19:17.682Z,92468.77
2019-04-05T13:21:43.503Z,92473.70
2019-04-05T13:24:10.108Z,92473.53
2019-04-05T13:26:36.895Z,92470.55
2019-04-05T13:29:03.395Z,92473.63
2019-04-05T13:31:29.435Z,92477.03
2019-04-05T13:33:55.636Z,92474.34
2019-04-05T13:36:21.874Z,92472.95
2019-04-05T13:38:54.833Z,92475.39
2019-04-05T13:41:15.312Z,92473.70
2019-04-05T13:43:41.381Z,92463.95
2019-04-05T13:46:07.399Z,92469.71
2019-04-05T13:48:33.173Z,92462.77
2019-04-05T13:50:58.971Z,92459.84
2019-04-05T13:53:24.751Z,92461.56
2019-04-05T13:55:50.785Z,92455.30
2019-04-05T13:58:16.939Z,92449.63
2019-04-05T14:00:42.665Z,92457.87
2019-04-05T14:03:08.652Z,92454.82
2019-04-05T14:05:34.824Z,92452.39
2019-04-05T14:08:10.039Z,92450.88
2019-04-05T14:10:28.239Z,92451.91
2019-04-05T14:12:54.061Z,92442.76
2019-04-05T14:15:19.829Z,92446.05
2019-04-05T14:17:45.601Z,92445.91
2019-04-05T14:20:11.644Z,92439.05
2019-04-05T14:22:37.410Z,92440.70
2019-04-05T14:25:05.298Z,92439.45
2019-04-05T14:27:34.809Z,92442.46
2019-04-05T14:30:00.547Z,92436.47
2019-04-05T14:32:27.012Z,92431.32
2019-04-05T14:34:54.806Z,92430.42
2019-04-05T14:37:22.154Z,92420.27
2019-04-05T14:39:48.449Z,92424.70
2019-04-05T14:42:14.786Z,92431.57
2019-04-05T14:44:41.345Z,92427.59
2019-04-05T14:47:07.117Z,92423.25
2019-04-05T14:49:33.249Z,92429.41
2019-04-05T14:52:01.061Z,92420.97
2019-04-05T14:54:26.595Z,92419.41
2019-04-05T14:56:52.400Z,92421.77
2019-04-05T14:59:18.261Z,92420.43
2019-04-05T15:01:44.637Z,92417.13
2019-04-05T15:04:12.274Z,92416.28
2019-04-05T15:06:38.129Z,92413.67
2019-04-05T15:09:04.909Z,92417.07
2019-04-05T15:11:30.672Z,92412.24
2019-04-05T15:13:56.469Z,92413.94
2019-04-05T15:16:23.522Z,92418.80
2019-04-05T15:18:49.765Z,92427.91
2019-04-05T15:21:15.470Z,92424.89
2019-04-05T15:23:41.473Z,92427.95
2019-04-05T15:26:08.858Z,92424.36
2019-04-05T15:28:34.629Z,92422.02
2019-04-05T15:31:00.449Z,92422.22
2019-04-05T15:33:27.847Z,92419.63
2019-04-05T15:35:54.463Z,92420.88
2019-04-05T15:38:20.227Z,92423.69
2019-04-05T15:40:46.040Z,92430.14
2019-04-05T15:43:12.130Z,92429.09
2019-04-05T15:45:38.156Z,92430.19
2019-04-05T15:48:03.920Z,92430.94
2019-04-05T15:50:29.700Z,92432.95
2019-04-05T15:52:55.466Z,92436.73
2019-04-05T15:55:21.275Z,92437.11
2019-04-05T15:57:47.349Z,92442.48
2019-04-05T16:00:15.067Z,92444.12
2019-04-05T16:02:42.990Z,92446.59
2019-04-05T16:05:08.542Z,92446.22
2019-04-05T16:07:34.296Z,92447.27
2019-04-05T16:10:00.065Z,92449.88
2019-04-05T16:12:25.882Z,92452.57
2019-04-05T16:14:51.640Z,92459.51
2019-04-05T16:17:17.740Z,92458.80
2019-04-05T16:19:43.480Z,92459.27
2019-04-05T16:22:09.541Z,92468.78
2019-04-05T16:24:35.368Z,92460.80
2019-04-05T16:27:01.486Z,92466.39
2019-04-05T16:29:27.461Z,92467.16
2019-04-05T16:31:53.180Z,92470.69
2019-04-05T16:34:19.251Z,92474.03
2019-04-05T16:36:45.033Z,92473.41
2019-04-05T16:39:12.696Z,92476.48
2019-04-05T16:41:38.759Z,92479.19
2019-04-05T16:44:04.567Z,92483.59
2019-04-05T16:46:30.360Z,92484.89
2019-04-05T16:48:56.123Z,92484.73
2019-04-05T16:51:22.258Z,92482.78
2019-04-05T16:54:01.049Z,92489.23
2019-04-05T16:56:27.077Z,92479.64
2019-04-05T16:58:53.110Z,92482.03
2019-04-05T17:01:26.837Z,92488.14
2019-04-05T17:03:46.547Z,92490.91
2019-04-05T17:06:12.323Z,92496.88
2019-04-05T17:08:38.139Z,92500.15
2019-04-05T17:11:04.287Z,92503.13
2019-04-05T17:13:29.978Z,92507.27
2019-04-05T17:15:55.709Z,92510.36
2019-04-05T17:18:21.493Z,92513.49
2019-04-05T17:20:47.256Z,92508.05
2019-04-05T17:23:13.028Z,92512.81
2019-04-05T17:25:38.790Z,92516.72
2019-04-05T17:28:04.582Z,92509.70
2019-04-05T17:30:30.377Z,92508.95
2019-04-05T17:32:56.426Z,92508.02
2019-04-05T17:35:22.186Z,92508.47
2019-04-05T17:37:47.955Z,92506.83
2019-04-05T17:40:13.722Z,92512.34
2019-04-05T17:42:39.501Z,92517.55
2019-04-05T17:45:06.364Z,92514.97
2019-04-05T17:47:32.176Z,92524.39
2019-04-05T17:49:57.928Z,92523.64
2019-04-05T17:52:24.006Z,92524.41
2019-04-05T17:54:50.155Z,92526.38
2019-04-05T17:57:15.867Z,92534.87
2019-04-05T17:59:41.897Z,92532.05
2019-04-05T18:02:07.845Z,92534.75
2019-04-05T18:04:33.583Z,92531.19
2019-04-05T18:06:59.353Z,92530.95
2019-04-05T18:09:27.311Z,92525.56
2019-04-05T18:11:52.797Z,92526.64
2019-04-05T18:14:18.568Z,92532.31
2019-04-05T18:16:44.377Z,92536.80
2019-04-05T18:19:10.482Z,92536.80
2019-04-05T18:21:36.171Z,92542.96
2019-04-05T18:24:01.893Z,92544.87
2019-04-05T18:26:27.673Z,92540.89
2019-04-05T18:28:53.774Z,92540.89
2019-04-05T18:31:19.726Z,92549.46
2019-04-05T18:33:45.507Z,92555.51
2019-04-05T18:36:11.277Z,92557.98
2019-04-05T18:38:37.336Z,92560.64
2019-04-05T18:41:03.318Z,92559.16
2019-04-05T18:43:29.033Z,92558.80
2019-04-05T18:45:54.825Z,92564.01
2019-04-05T18:48:20.945Z,92569.55
2019-04-05T18:50:48.540Z,92569.03
2019-04-05T18:53:14.810Z,92568.56
2019-04-05T18:55:40.626Z,92573.28
2019-04-05T18:58:06.655Z,92580.39
2019-04-05T19:00:32.495Z,92581.69
2019-04-05T19:02:58.295Z,92583.28
2019-04-05T19:05:24.446Z,92586.39
2019-04-05T19:07:50.186Z,92584.86
2019-04-05T19:10:16.278Z,92587.00
2019-04-05T19:12:42.077Z,92590.35
2019-04-05T19:15:07.992Z,92592.25
2019-04-05T19:17:33.757Z,92592.06
2019-04-05T19:19:59.532Z,92597.70
2019-04-05T19:22:25.297Z,92590.16
2019-04-05T19:24:51.078Z,92589.70
2019-04-05T19:27:16.841Z,92588.16
2019-04-05T19:29:42.863Z,92592.71
2019-04-05T19:49:24.445Z,92589.09
2019-04-05T19:51:50.254Z,92590.48
2019-04-05T19:54:16.395Z,92589.13
2019-04-05T19:56:42.106Z,92586.86
2019-04-05T19:59:07.831Z,92588.71
2019-04-05T20:01:33.608Z,92595.59
2019-04-05T20:03:59.377Z,92596.38
2019-04-05T20:06:25.472Z,92596.38
2019-04-05T20:08:51.201Z,92602.89
2019-04-05T20:11:18.002Z,92605.22
2019-04-05T20:13:43.979Z,92607.91
2019-04-05T20:16:09.761Z,92606.29
2019-04-05T20:18:35.523Z,92610.19
2019-04-05T20:21:01.299Z,92607.35
2019-04-05T20:23:27.107Z,92607.64
2019-04-05T20:25:52.885Z,92615.16
2019-04-05T20:28:18.648Z,92614.41
2019-04-05T20:30:44.426Z,92616.27
2019-04-05T20:33:10.510Z,92619.34
2019-04-05T20:35:36.257Z,92618.36
2019-04-05T20:38:02.303Z,92621.00
2019-04-05T20:40:28.007Z,92620.50
2019-04-05T20:42:54.090Z,92612.50
2019-04-05T20:45:19.842Z,92613.09
2019-04-05T20:47:45.636Z,92610.81
2019-04-05T20:50:11.369Z,92612.35
2019-04-05T20:52:37.073Z,92609.23
2019-04-05T20:55:05.265Z,92613.42
2019-04-05T20:57:31.039Z,92613.92
2019-04-05T20:59:56.804Z,92611.01
